Time;durP1;ratioP1;P1;durP2;ratioP2;P2;SDS_P1;SDS_P2;PMS_P1;PMS_P2;Temp;Humidity;BMP_temperature;BMP_pressure;BME280_temperature;BME280_humidity;BME280_pressure;Samples;Min_cycle;Max_cycle;Signal;HPM_P1;HPM_P2
2021/07/17 00:01:15;;;;;;;3.33;3.00;;;20.40;99.90;;;;;;6034968;29;20300;-79
2021/07/17 00:04:18;;;;;;;4.60;3.83;;;20.30;99.90;;;;;;6039453;29;20210;-79
2021/07/17 00:07:24;;;;;;;4.43;3.80;;;20.40;99.90;;;;;;6056015;29;20550;-78
2021/07/17 00:10:48;;;;;;;8.70;3.80;;;20.40;99.90;;;;;;6054464;29;20202;-79
2021/07/17 00:13:51;;;;;;;3.50;3.20;;;20.40;99.90;;;;;;6054415;29;20198;-78
2021/07/17 00:16:53;;;;;;;4.00;3.50;;;20.40;99.90;;;;;;6054223;29;20267;-78
2021/07/17 00:19:55;;;;;;;3.97;3.23;;;20.40;99.90;;;;;;6055713;29;20220;-78
2021/07/17 00:22:58;;;;;;;4.73;3.90;;;20.30;99.90;;;;;;6053729;29;20564;-79
2021/07/17 00:26:01;;;;;;;4.27;3.87;;;20.30;99.90;;;;;;6054245;29;20322;-80
2021/07/17 00:29:03;;;;;;;5.47;3.90;;;20.30;99.90;;;;;;6054987;29;20335;-79
2021/07/17 00:32:06;;;;;;;5.53;4.10;;;20.20;99.90;;;;;;6053922;29;20694;-77
2021/07/17 00:35:09;;;;;;;5.33;4.03;;;20.20;99.90;;;;;;6053858;29;20241;-79
2021/07/17 00:38:11;;;;;;;4.87;3.77;;;20.20;99.90;;;;;;6054861;29;20209;-79
2021/07/17 00:41:14;;;;;;;5.10;4.60;;;20.10;99.90;;;;;;6038294;29;20206;-79
2021/07/17 00:44:16;;;;;;;4.93;4.10;;;20.10;99.90;;;;;;6053452;29;20823;-78
2021/07/17 00:47:19;;;;;;;7.07;3.90;;;20.20;99.90;;;;;;6055401;29;20185;-79
2021/07/17 00:50:23;;;;;;;5.87;4.53;;;20.10;99.90;;;;;;6055162;29;20531;-79
2021/07/17 00:53:25;;;;;;;6.27;4.27;;;20.20;99.90;;;;;;6053487;29;20201;-78
2021/07/17 00:56:29;;;;;;;4.93;3.87;;;20.30;99.90;;;;;;6053589;29;20273;-79
2021/07/17 00:59:35;;;;;;;5.07;4.10;;;20.30;99.90;;;;;;6038058;29;20534;-79
2021/07/17 01:02:44;;;;;;;4.20;3.80;;;20.30;99.90;;;;;;6054848;29;20272;-79
2021/07/17 01:05:47;;;;;;;4.20;3.57;;;20.30;99.90;;;;;;6054328;29;20169;-79
2021/07/17 01:08:50;;;;;;;4.20;3.80;;;20.20;99.90;;;;;;6053532;29;20208;-79
2021/07/17 01:11:53;;;;;;;6.27;4.30;;;20.20;99.90;;;;;;6054537;29;20201;-78
2021/07/17 01:15:01;;;;;;;4.70;3.90;;;20.20;99.90;;;;;;6054290;29;20273;-78
2021/07/17 01:18:10;;;;;;;4.13;3.70;;;20.30;99.90;;;;;;6053960;29;20306;-79
2021/07/17 01:21:16;;;;;;;5.03;4.23;;;20.30;99.90;;;;;;6054446;29;20321;-79
2021/07/17 01:24:23;;;;;;;4.47;3.80;;;20.40;99.90;;;;;;6053496;29;20192;-79
2021/07/17 01:27:26;;;;;;;4.50;4.10;;;20.40;99.90;;;;;;6053480;29;20198;-78
2021/07/17 01:30:32;;;;;;;3.80;3.40;;;20.40;99.90;;;;;;6054217;29;20198;-79
2021/07/17 01:33:35;;;;;;;5.03;3.63;;;20.40;99.90;;;;;;6054339;29;20288;-79
2021/07/17 01:36:38;;;;;;;3.77;3.33;;;20.40;99.90;;;;;;6053871;29;20705;-79
2021/07/17 01:39:41;;;;;;;4.30;3.90;;;20.40;99.90;;;;;;6053148;29;20209;-79
2021/07/17 01:42:46;;;;;;;4.37;3.90;;;20.40;99.90;;;;;;6054077;29;20623;-78
2021/07/17 01:45:48;;;;;;;4.20;3.10;;;20.40;99.90;;;;;;6053168;29;20201;-79
2021/07/17 01:48:52;;;;;;;3.67;3.33;;;20.40;99.90;;;;;;6054380;29;20272;-78
2021/07/17 01:51:54;;;;;;;3.83;3.53;;;20.40;99.90;;;;;;6054400;29;20620;-79
2021/07/17 01:54:57;;;;;;;4.13;3.70;;;20.40;99.90;;;;;;6057601;29;20194;-79
2021/07/17 01:58:00;;;;;;;7.80;3.80;;;20.40;99.90;;;;;;6057091;29;20338;-79
2021/07/17 02:01:02;;;;;;;5.47;3.80;;;20.30;99.90;;;;;;6057245;29;20232;-79
2021/07/17 02:04:05;;;;;;;4.97;4.20;;;20.30;99.90;;;;;;6057301;29;20366;-79
2021/07/17 02:07:07;;;;;;;4.43;4.00;;;20.20;99.90;;;;;;6056607;29;20197;-79
2021/07/17 02:10:13;;;;;;;4.60;4.20;;;20.20;99.90;;;;;;6057021;29;20620;-79
2021/07/17 02:13:16;;;;;;;4.30;3.90;;;20.20;99.90;;;;;;6056816;29;20722;-79
2021/07/17 02:16:20;;;;;;;6.77;4.40;;;20.20;99.90;;;;;;6057162;29;20201;-79
2021/07/17 02:19:22;;;;;;;4.53;4.10;;;20.10;99.90;;;;;;6057200;29;20684;-79
2021/07/17 02:22:25;;;;;;;4.50;4.13;;;20.20;99.90;;;;;;6057640;29;20204;-78
2021/07/17 02:25:27;;;;;;;4.93;4.47;;;20.10;99.90;;;;;;6056654;29;20544;-79
2021/07/17 02:28:29;;;;;;;4.70;4.30;;;20.10;99.90;;;;;;6056487;29;20201;-79
2021/07/17 02:31:32;;;;;;;4.73;4.20;;;20.10;99.90;;;;;;6056838;29;20247;-78
2021/07/17 02:34:34;;;;;;;6.20;4.97;;;20.10;99.90;;;;;;6056349;29;20217;-79
2021/07/17 02:37:37;;;;;;;5.53;4.83;;;20.10;99.90;;;;;;6056489;29;20264;-79
2021/07/17 02:40:39;;;;;;;5.50;5.00;;;20.10;99.90;;;;;;6056753;29;20240;-79
2021/07/17 02:43:42;;;;;;;5.23;4.73;;;20.10;99.90;;;;;;6057390;29;20193;-78
2021/07/17 02:46:44;;;;;;;5.47;4.80;;;20.10;99.90;;;;;;6056366;29;20197;-79
2021/07/17 02:49:46;;;;;;;5.70;5.10;;;20.10;99.90;;;;;;6057240;29;20204;-78
2021/07/17 02:52:49;;;;;;;5.23;4.73;;;20.10;99.90;;;;;;6056127;29;20201;-79
2021/07/17 02:55:51;;;;;;;4.70;4.30;;;20.00;99.90;;;;;;6057575;29;20557;-79
2021/07/17 02:58:54;;;;;;;6.57;5.20;;;20.00;99.90;;;;;;6055521;29;20304;-79
2021/07/17 03:02:01;;;;;;;5.43;4.93;;;19.90;99.90;;;;;;6057195;29;20254;-80
2021/07/17 03:05:16;;;;;;;4.97;4.50;;;19.90;99.90;;;;;;6056959;29;20343;-79
2021/07/17 03:08:24;;;;;;;5.80;5.20;;;19.90;99.90;;;;;;6056119;29;20252;-79
2021/07/17 03:11:26;;;;;;;5.53;4.80;;;19.90;99.90;;;;;;6055729;29;20316;-78
2021/07/17 03:14:28;;;;;;;6.00;4.60;;;19.90;99.90;;;;;;6040175;29;20237;-79
2021/07/17 03:17:31;;;;;;;5.43;4.93;;;19.80;99.90;;;;;;6055782;29;20677;-80
2021/07/17 03:20:33;;;;;;;6.50;5.13;;;19.80;99.90;;;;;;6055406;29;20213;-79
2021/07/17 03:23:35;;;;;;;7.90;5.30;;;19.80;99.90;;;;;;6055895;29;20280;-79
2021/07/17 03:26:37;;;;;;;8.70;5.73;;;19.80;99.90;;;;;;6055138;29;20205;-79
2021/07/17 03:29:40;;;;;;;8.00;6.20;;;19.80;99.90;;;;;;6055681;29;20202;-78
2021/07/17 03:32:42;;;;;;;6.60;5.83;;;19.80;99.90;;;;;;6056763;29;20215;-79
2021/07/17 03:35:44;;;;;;;8.27;5.37;;;19.80;99.90;;;;;;6055950;29;20241;-79
2021/07/17 03:38:47;;;;;;;6.03;5.50;;;19.90;99.90;;;;;;6055184;29;20339;-78
2021/07/17 03:41:49;;;;;;;5.90;5.40;;;19.80;99.90;;;;;;6056148;29;20500;-79
2021/07/17 03:44:51;;;;;;;7.27;5.43;;;19.90;99.90;;;;;;6055029;29;20193;-78
2021/07/17 03:47:53;;;;;;;6.50;5.90;;;20.00;99.90;;;;;;6055067;29;20566;-79
2021/07/17 03:50:56;;;;;;;6.97;5.83;;;20.00;99.90;;;;;;6054428;29;20230;-79
2021/07/17 03:53:58;;;;;;;7.23;5.90;;;20.00;99.90;;;;;;6039311;29;20673;-79
2021/07/17 03:57:01;;;;;;;6.30;5.63;;;20.00;99.90;;;;;;6054236;29;20287;-79
2021/07/17 04:00:05;;;;;;;7.70;5.90;;;20.10;99.90;;;;;;6056071;29;20209;-79
2021/07/17 04:03:08;;;;;;;6.83;6.23;;;20.10;99.90;;;;;;6054832;29;20206;-77
2021/07/17 04:06:10;;;;;;;6.80;6.20;;;20.20;99.90;;;;;;6054198;29;20201;-79
2021/07/17 04:09:13;;;;;;;6.80;6.10;;;20.20;99.90;;;;;;6039294;29;20212;-78
2021/07/17 04:12:15;;;;;;;7.67;6.07;;;20.20;99.90;;;;;;6055173;29;20250;-79
2021/07/17 04:15:18;;;;;;;6.40;5.80;;;20.20;99.90;;;;;;6052612;29;20217;-80
2021/07/17 04:18:20;;;;;;;6.77;5.93;;;20.30;99.90;;;;;;6054288;29;20273;-80
2021/07/17 04:21:23;;;;;;;7.80;6.83;;;20.40;99.90;;;;;;6054077;29;20216;-79
2021/07/17 04:24:25;;;;;;;12.50;8.07;;;20.40;99.90;;;;;;6055643;29;20205;-79
2021/07/17 04:27:27;;;;;;;13.70;8.47;;;20.30;99.90;;;;;;6039063;29;20208;-79
2021/07/17 04:30:30;;;;;;;11.33;8.27;;;20.20;99.90;;;;;;6054348;29;20583;-79
2021/07/17 04:33:32;;;;;;;12.70;9.17;;;20.00;99.90;;;;;;6054595;29;20217;-78
2021/07/17 04:36:35;;;;;;;20.80;10.20;;;19.80;99.90;;;;;;6053839;29;20614;-78
2021/07/17 04:39:37;;;;;;;9.10;8.13;;;19.60;99.90;;;;;;6055660;29;20228;-78
2021/07/17 04:42:40;;;;;;;12.57;9.33;;;19.40;99.90;;;;;;6054424;29;20193;-79
2021/07/17 04:45:42;;;;;;;9.37;8.20;;;19.40;99.90;;;;;;6054699;29;20197;-78
2021/07/17 04:48:44;;;;;;;9.13;8.20;;;19.40;99.90;;;;;;6054484;29;20779;-78
2021/07/17 04:51:46;;;;;;;10.17;8.90;;;19.40;99.90;;;;;;6054354;29;20625;-79
2021/07/17 04:54:49;;;;;;;10.77;9.13;;;19.30;99.90;;;;;;6054154;29;20268;-78
2021/07/17 04:57:53;;;;;;;11.50;9.53;;;19.20;99.90;;;;;;6054680;29;20209;-79
2021/07/17 05:00:55;;;;;;;11.17;8.70;;;19.10;99.90;;;;;;6053992;29;20216;-78
2021/07/17 05:03:57;;;;;;;11.40;8.70;;;19.10;99.90;;;;;;6053364;29;20265;-78
2021/07/17 05:06:59;;;;;;;8.23;7.43;;;19.10;99.90;;;;;;6054195;29;20564;-78
2021/07/17 05:10:02;;;;;;;8.20;7.40;;;19.10;99.90;;;;;;6055278;29;20200;-78
2021/07/17 05:13:12;;;;;;;10.23;7.67;;;19.20;99.90;;;;;;6054014;29;20197;-78
2021/07/17 05:16:15;;;;;;;7.83;7.03;;;19.20;99.90;;;;;;6053865;29;20223;-77
2021/07/17 05:19:18;;;;;;;8.10;7.30;;;19.20;99.90;;;;;;6053629;29;20210;-78
2021/07/17 05:22:20;;;;;;;7.93;7.10;;;19.30;99.90;;;;;;6053799;29;20200;-78
2021/07/17 05:25:23;;;;;;;7.10;6.40;;;19.30;99.90;;;;;;6053825;29;20602;-78
2021/07/17 05:28:25;;;;;;;8.57;6.97;;;19.40;99.90;;;;;;6055195;29;20194;-78
2021/07/17 05:31:27;;;;;;;8.57;7.50;;;19.40;99.90;;;;;;6053740;29;20280;-79
2021/07/17 05:34:29;;;;;;;7.37;6.50;;;19.40;99.90;;;;;;6053329;29;20228;-79
2021/07/17 05:37:32;;;;;;;11.30;8.40;;;19.40;99.90;;;;;;6057493;29;20229;-79
2021/07/17 05:40:35;;;;;;;8.13;6.87;;;19.20;99.90;;;;;;6053105;29;20310;-79
2021/07/17 05:43:37;;;;;;;7.03;6.17;;;19.10;99.90;;;;;;6053582;29;20254;-78
2021/07/17 05:46:39;;;;;;;5.93;5.33;;;19.10;99.90;;;;;;6048382;29;20691;-77
2021/07/17 05:49:43;;;;;;;6.87;5.63;;;19.10;99.90;;;;;;6053212;29;20283;-77
2021/07/17 05:52:46;;;;;;;5.30;4.80;;;19.10;99.90;;;;;;6054651;29;20858;-77
2021/07/17 05:55:48;;;;;;;5.93;5.37;;;19.20;99.90;;;;;;6055197;29;20288;-77
2021/07/17 05:58:50;;;;;;;5.20;4.77;;;19.20;99.90;;;;;;6045751;29;20279;-77
2021/07/17 06:01:52;;;;;;;5.37;4.87;;;19.30;99.90;;;;;;6036869;29;20217;-77
2021/07/17 06:04:55;;;;;;;5.20;4.70;;;19.30;99.90;;;;;;6038013;29;20209;-77
2021/07/17 06:07:58;;;;;;;9.40;5.27;;;19.40;99.90;;;;;;6053206;29;20591;-77
2021/07/17 06:11:00;;;;;;;5.20;4.40;;;19.40;99.90;;;;;;6054231;29;20193;-77
2021/07/17 06:14:02;;;;;;;5.73;5.27;;;19.50;99.90;;;;;;6054280;29;20333;-77
2021/07/17 06:17:06;;;;;;;5.93;4.60;;;19.50;99.90;;;;;;6053032;29;20678;-77
2021/07/17 06:20:09;;;;;;;5.13;4.73;;;19.60;99.90;;;;;;6053244;29;20296;-78
2021/07/17 06:23:11;;;;;;;4.70;4.30;;;19.70;99.90;;;;;;6053099;29;20194;-78
2021/07/17 06:26:13;;;;;;;6.33;4.90;;;19.70;99.90;;;;;;6053113;29;20288;-77
2021/07/17 06:29:16;;;;;;;4.67;4.27;;;19.70;99.90;;;;;;6045368;29;20604;-78
2021/07/17 06:32:19;;;;;;;6.40;5.00;;;19.70;99.90;;;;;;6043153;29;20189;-78
2021/07/17 06:35:21;;;;;;;5.13;4.67;;;19.80;99.90;;;;;;6054177;29;20237;-77
2021/07/17 06:38:23;;;;;;;5.07;4.40;;;19.80;99.90;;;;;;6056614;29;20194;-78
2021/07/17 06:41:26;;;;;;;5.87;4.40;;;19.90;99.90;;;;;;6057064;29;20226;-77
2021/07/17 06:44:28;;;;;;;6.03;5.00;;;20.00;99.90;;;;;;6056612;29;20275;-78
2021/07/17 06:47:30;;;;;;;4.23;3.93;;;20.10;99.90;;;;;;6058309;29;20617;-78
2021/07/17 06:50:33;;;;;;;4.37;4.03;;;20.20;99.90;;;;;;6057123;29;20672;-77
2021/07/17 06:53:36;;;;;;;4.20;3.80;;;20.30;99.90;;;;;;6057574;29;20289;-78
2021/07/17 06:56:38;;;;;;;4.53;4.17;;;20.30;99.90;;;;;;6056274;29;20206;-77
2021/07/17 06:59:40;;;;;;;4.33;3.93;;;20.30;99.90;;;;;;6056631;29;20239;-77
2021/07/17 07:02:43;;;;;;;4.00;3.70;;;20.20;99.90;;;;;;6040222;29;20202;-77
2021/07/17 07:05:46;;;;;;;4.17;3.80;;;20.30;99.90;;;;;;6055138;29;20694;-77
2021/07/17 07:08:50;;;;;;;3.60;3.30;;;20.30;99.90;;;;;;6056720;29;20254;-77
2021/07/17 07:11:53;;;;;;;3.60;3.30;;;20.30;99.90;;;;;;6056942;29;20202;-77
2021/07/17 07:14:56;;;;;;;3.03;2.73;;;20.30;99.90;;;;;;6032509;29;20312;-77
2021/07/17 07:17:58;;;;;;;3.60;2.90;;;20.20;99.90;;;;;;6043786;29;20211;-77
2021/07/17 07:21:00;;;;;;;3.50;3.20;;;20.10;99.90;;;;;;6054470;29;20209;-77
2021/07/17 07:24:03;;;;;;;3.07;2.40;;;20.10;99.90;;;;;;6056412;29;20201;-77
2021/07/17 07:27:05;;;;;;;2.33;1.93;;;20.00;99.90;;;;;;6055227;29;20709;-77
2021/07/17 07:30:08;;;;;;;4.23;2.57;;;20.00;99.90;;;;;;6054428;29;20658;-77
2021/07/17 07:33:26;;;;;;;2.90;2.17;;;19.90;99.90;;;;;;6056528;29;20205;-77
2021/07/17 07:36:28;;;;;;;3.43;2.43;;;20.00;99.90;;;;;;6046820;29;20241;-77
2021/07/17 07:39:30;;;;;;;2.83;2.13;;;19.90;99.90;;;;;;6032857;29;20216;-78
2021/07/17 07:42:32;;;;;;;2.20;2.00;;;19.90;99.90;;;;;;6046025;29;20193;-77
2021/07/17 07:45:35;;;;;;;3.83;2.20;;;19.90;99.90;;;;;;6054957;29;20205;-77
2021/07/17 07:48:37;;;;;;;2.37;2.17;;;19.90;99.90;;;;;;6046062;29;20235;-77
2021/07/17 07:51:40;;;;;;;2.47;2.27;;;19.80;99.90;;;;;;6036554;29;20228;-77
2021/07/17 07:54:42;;;;;;;2.43;2.23;;;19.80;99.90;;;;;;6056120;29;20197;-77
2021/07/17 07:57:45;;;;;;;5.50;2.53;;;19.80;99.90;;;;;;6055464;29;20713;-77
2021/07/17 08:00:47;;;;;;;2.83;2.63;;;19.90;99.90;;;;;;6046831;29;20222;-77
2021/07/17 08:03:49;;;;;;;3.97;2.80;;;19.90;99.90;;;;;;6051369;29;20202;-77
2021/07/17 08:06:51;;;;;;;3.03;2.70;;;19.90;99.90;;;;;;6054341;29;20334;-77
2021/07/17 08:09:54;;;;;;;3.77;3.37;;;19.90;99.90;;;;;;6046103;29;20686;-77
2021/07/17 08:12:57;;;;;;;4.43;2.97;;;19.90;99.90;;;;;;6039375;29;20212;-77
2021/07/17 08:16:01;;;;;;;3.60;2.50;;;20.00;99.90;;;;;;6054954;29;20189;-77
2021/07/17 08:19:04;;;;;;;4.00;3.60;;;20.00;99.90;;;;;;6037745;29;20220;-77
2021/07/17 08:22:06;;;;;;;4.97;3.57;;;20.10;99.90;;;;;;6053368;29;20221;-77
2021/07/17 08:25:09;;;;;;;3.83;3.43;;;20.10;99.90;;;;;;6053733;29;20205;-77
2021/07/17 08:28:12;;;;;;;5.60;3.73;;;20.20;99.90;;;;;;6054961;29;20210;-77
2021/07/17 08:31:14;;;;;;;4.27;3.77;;;20.40;99.90;;;;;;6053501;29;20539;-77
2021/07/17 08:34:16;;;;;;;4.10;3.67;;;20.60;99.90;;;;;;6044699;29;20234;-77
2021/07/17 08:37:20;;;;;;;4.93;4.43;;;20.80;99.90;;;;;;6042226;29;20248;-78
2021/07/17 08:40:23;;;;;;;4.93;4.43;;;20.90;99.90;;;;;;6053333;29;20681;-78
2021/07/17 08:43:26;;;;;;;4.70;4.30;;;21.00;99.90;;;;;;6054714;29;20201;-78
2021/07/17 08:46:29;;;;;;;5.23;4.77;;;21.10;99.90;;;;;;6053753;29;20189;-78
2021/07/17 08:49:32;;;;;;;6.27;5.20;;;21.10;99.90;;;;;;6053324;29;20205;-78
2021/07/17 08:52:36;;;;;;;5.83;5.07;;;21.20;99.90;;;;;;6053603;29;20220;-78
2021/07/17 08:55:38;;;;;;;6.00;5.47;;;21.30;99.90;;;;;;6035468;29;20663;-79
2021/07/17 08:58:41;;;;;;;6.60;5.83;;;21.20;99.90;;;;;;6046031;29;20206;-78
2021/07/17 09:01:43;;;;;;;6.70;6.10;;;21.20;99.90;;;;;;6043889;29;20244;-78
2021/07/17 09:04:46;;;;;;;7.93;7.23;;;21.10;99.90;;;;;;6045517;29;20292;-78
2021/07/17 09:07:48;;;;;;;7.33;6.67;;;21.10;99.90;;;;;;6038321;29;20205;-78
2021/07/17 09:10:54;;;;;;;7.83;7.13;;;21.00;99.90;;;;;;6055548;29;20650;-79
2021/07/17 09:13:58;;;;;;;8.37;7.57;;;20.90;99.90;;;;;;6053388;29;20204;-78
2021/07/17 09:17:00;;;;;;;6.93;6.30;;;20.80;99.90;;;;;;6054779;29;20570;-78
2021/07/17 09:20:04;;;;;;;8.43;7.63;;;20.80;99.90;;;;;;6052915;29;20225;-78
2021/07/17 09:23:09;;;;;;;8.27;7.57;;;20.80;99.90;;;;;;6053446;29;20205;-78
2021/07/17 09:26:17;;;;;;;9.63;8.20;;;20.80;99.90;;;;;;6045458;29;20331;-78
2021/07/17 09:29:20;;;;;;;9.70;8.70;;;20.90;99.90;;;;;;6043933;29;20202;-77
2021/07/17 09:32:23;;;;;;;11.07;8.63;;;20.90;99.90;;;;;;6045652;29;20214;-77
2021/07/17 09:35:26;;;;;;;9.90;9.00;;;20.90;99.90;;;;;;6044428;29;20242;-77
2021/07/17 09:38:33;;;;;;;10.40;9.40;;;21.00;99.90;;;;;;6035198;29;20205;-77
2021/07/17 09:41:37;;;;;;;9.80;8.77;;;21.10;99.90;;;;;;6052684;29;20213;-77
2021/07/17 09:44:41;;;;;;;10.10;9.17;;;21.20;99.90;;;;;;6054307;29;20681;-77
2021/07/17 09:47:43;;;;;;;10.53;9.53;;;21.30;99.90;;;;;;6037611;29;20538;-77
2021/07/17 09:50:45;;;;;;;11.07;9.90;;;21.50;99.90;;;;;;6052101;29;20221;-77
2021/07/17 09:54:00;;;;;;;11.17;10.10;;;21.70;99.90;;;;;;6053305;29;20288;-76
2021/07/17 09:57:03;;;;;;;14.53;10.27;;;21.80;99.90;;;;;;6052299;29;20209;-77
2021/07/17 10:00:19;;;;;;;13.27;10.33;;;21.80;99.90;;;;;;6051893;29;20202;-77
2021/07/17 10:03:34;;;;;;;12.63;11.43;;;21.80;99.90;;;;;;6051707;29;20682;-77
2021/07/17 10:06:49;;;;;;;12.47;11.07;;;21.90;99.90;;;;;;6051698;29;20205;-77
2021/07/17 10:09:51;;;;;;;13.27;10.57;;;22.00;99.90;;;;;;6052078;29;20205;-78
2021/07/17 10:12:59;;;;;;;10.60;9.57;;;22.10;99.90;;;;;;6054789;29;20205;-78
2021/07/17 10:16:14;;;;;;;14.17;10.93;;;22.20;99.90;;;;;;6056222;29;20573;-78
2021/07/17 10:19:18;;;;;;;15.47;10.90;;;22.30;99.90;;;;;;6056441;29;20661;-78
2021/07/17 10:22:20;;;;;;;12.30;10.73;;;22.50;99.90;;;;;;6057118;29;20209;-78
2021/07/17 10:25:23;;;;;;;12.07;10.87;;;22.60;99.90;;;;;;6056209;29;20206;-78
2021/07/17 10:28:26;;;;;;;12.23;11.03;;;22.60;99.90;;;;;;6057747;29;20254;-78
2021/07/17 10:31:28;;;;;;;11.53;10.53;;;22.70;99.90;;;;;;6055419;29;20212;-79
2021/07/17 10:34:30;;;;;;;12.77;11.43;;;22.70;99.90;;;;;;6047917;29;20237;-79
2021/07/17 10:37:36;;;;;;;11.53;10.43;;;22.70;99.90;;;;;;6041334;29;20233;-78
2021/07/17 10:40:39;;;;;;;11.60;10.53;;;22.60;99.90;;;;;;6055471;29;20216;-79
2021/07/17 10:43:48;;;;;;;12.17;10.97;;;22.50;99.90;;;;;;6056067;29;20296;-78
2021/07/17 10:47:05;;;;;;;12.93;11.53;;;22.40;99.90;;;;;;6054972;29;20178;-78
2021/07/17 10:50:13;;;;;;;12.67;11.43;;;22.40;99.90;;;;;;6056809;29;20186;-79
2021/07/17 10:53:45;;;;;;;14.13;12.43;;;22.20;99.90;;;;;;6056955;29;20654;-79
2021/07/17 10:56:47;;;;;;;12.57;11.17;;;22.20;99.90;;;;;;6057069;29;20213;-79
2021/07/17 10:59:49;;;;;;;12.67;11.37;;;22.00;99.90;;;;;;6037172;29;20202;-78
2021/07/17 11:03:21;;;;;;;15.63;11.50;;;22.20;99.90;;;;;;6026015;29;20236;-79
2021/07/17 11:06:33;;;;;;;13.80;11.57;;;22.40;99.90;;;;;;6049846;29;20597;-79
2021/07/17 11:10:03;;;;;;;13.17;10.87;;;22.60;99.90;;;;;;6041698;29;20202;-79
2021/07/17 11:13:05;;;;;;;18.33;10.97;;;22.80;99.90;;;;;;6040408;29;20207;-79
2021/07/17 11:16:07;;;;;;;11.47;10.27;;;22.90;99.90;;;;;;6046129;29;20296;-79
2021/07/17 11:19:15;;;;;;;13.70;10.73;;;23.00;99.90;;;;;;6057104;29;20257;-79
2021/07/17 11:22:18;;;;;;;12.67;11.37;;;23.20;99.90;;;;;;6055452;29;20308;-79
2021/07/17 11:25:20;;;;;;;12.30;11.00;;;23.20;99.90;;;;;;6054996;29;20204;-79
2021/07/17 11:29:04;;;;;;;11.77;10.67;;;23.30;99.90;;;;;;6055524;29;20658;-80
2021/07/17 11:32:09;;;;;;;12.73;10.63;;;23.50;99.90;;;;;;6055403;29;20681;-80
2021/07/17 11:35:23;;;;;;;11.50;10.23;;;23.80;99.90;;;;;;6054793;29;20253;-78
2021/07/17 11:38:25;;;;;;;11.47;10.37;;;24.10;99.90;;;;;;6056834;29;20185;-79
2021/07/17 11:41:27;;;;;;;12.30;10.47;;;24.40;99.90;;;;;;6054255;29;20237;-79
2021/07/17 11:44:31;;;;;;;11.30;10.10;;;24.60;99.90;;;;;;6056282;29;20202;-79
2021/07/17 11:47:40;;;;;;;15.63;10.93;;;24.80;99.90;;;;;;6054516;29;20333;-79
2021/07/17 11:50:46;;;;;;;12.33;10.23;;;25.10;99.90;;;;;;6042141;29;20202;-80
2021/07/17 11:53:48;;;;;;;11.27;10.10;;;25.20;99.90;;;;;;6019916;29;20206;-79
2021/07/17 11:57:15;;;;;;;11.77;10.57;;;25.40;99.90;;;;;;6038618;29;20253;-79
2021/07/17 12:00:20;;;;;;;11.48;10.25;;;25.40;99.90;;;;;;6054024;29;20206;-80
2021/07/17 12:03:27;;;;;;;13.57;10.25;;;25.60;99.90;;;;;;6054386;29;20289;-80
2021/07/17 12:06:32;;;;;;;13.35;10.02;;;25.90;99.90;;;;;;6039213;29;20194;-79
2021/07/17 12:09:38;;;;;;;10.05;9.15;;;26.30;99.90;;;;;;6054572;29;20246;-80
2021/07/17 12:12:43;;;;;;;11.18;10.02;;;26.60;99.90;;;;;;6056292;29;20197;-81
2021/07/17 12:15:45;;;;;;;11.43;10.25;;;26.80;99.90;;;;;;6055908;29;20201;-80
2021/07/17 12:18:55;;;;;;;11.77;10.18;;;26.90;99.90;;;;;;6055814;29;20280;-80
2021/07/17 12:21:58;;;;;;;14.13;10.07;;;26.80;99.90;;;;;;6054604;29;20228;-80
2021/07/17 12:25:10;;;;;;;13.82;10.52;;;26.50;99.90;;;;;;6043380;29;20194;-80
2021/07/17 12:28:24;;;;;;;15.23;11.77;;;26.00;99.90;;;;;;6042966;29;20186;-80
2021/07/17 12:31:26;;;;;;;15.77;11.82;;;25.60;99.90;;;;;;6054812;29;20683;-79
2021/07/17 12:34:29;;;;;;;12.43;11.13;;;25.10;99.90;;;;;;6054155;29;20693;-78
2021/07/17 12:37:31;;;;;;;13.07;11.05;;;24.70;99.90;;;;;;6055492;29;20264;-79
2021/07/17 12:40:49;;;;;;;15.90;10.97;;;24.50;99.90;;;;;;6054183;29;20566;-78
2021/07/17 12:43:54;;;;;;;15.87;12.07;;;24.30;99.90;;;;;;6054632;29;20807;-78
2021/07/17 12:47:04;;;;;;;12.50;9.87;;;24.20;99.90;;;;;;6046044;29;20294;-78
2021/07/17 12:50:07;;;;;;;15.50;11.75;;;24.20;99.90;;;;;;6053124;29;20330;-78
2021/07/17 12:53:13;;;;;;;14.80;11.43;;;24.20;99.90;;;;;;6051181;29;20682;-78
2021/07/17 12:56:27;;;;;;;12.70;11.50;;;24.30;99.90;;;;;;6054761;29;20662;-78
2021/07/17 12:59:37;;;;;;;14.43;12.07;;;24.50;99.90;;;;;;6046548;29;20207;-78
2021/07/17 13:02:39;;;;;;;13.15;11.85;;;24.80;99.90;;;;;;6045078;29;20224;-78
2021/07/17 13:05:47;;;;;;;13.45;12.13;;;25.10;99.90;;;;;;6031161;29;20679;-78
2021/07/17 13:09:01;;;;;;;13.70;12.32;;;25.30;99.90;;;;;;6036688;29;20561;-78
2021/07/17 13:12:09;;;;;;;13.18;11.45;;;25.30;99.90;;;;;;6053691;29;20278;-78
2021/07/17 13:15:14;;;;;;;15.35;11.48;;;25.20;99.90;;;;;;6054700;29;20400;-79
2021/07/17 13:18:21;;;;;;;12.75;11.45;;;24.90;99.90;;;;;;6038383;29;20284;-80
2021/07/17 13:21:37;;;;;;;15.23;12.33;;;24.70;99.90;;;;;;6055910;29;20269;-79
2021/07/17 15:35:46;;;;;;;12.07;7.50;;;23.70;99.90;;;;;;7647396;23;1431741;-70
2021/07/17 15:38:48;;;;;;;9.30;7.60;;;23.80;99.90;;;;;;7677942;23;20156;-71
2021/07/17 15:41:51;;;;;;;7.33;6.63;;;24.00;99.90;;;;;;7658880;23;20634;-71
2021/07/17 15:44:53;;;;;;;10.17;7.07;;;24.40;99.90;;;;;;7686253;23;20180;-71
2021/07/17 15:47:57;;;;;;;8.50;6.53;;;25.10;99.90;;;;;;7661325;23;20170;-71
2021/07/17 15:50:59;;;;;;;10.00;6.53;;;26.00;99.90;;;;;;7660153;23;20242;-71
2021/07/17 15:54:03;;;;;;;12.38;6.43;;;27.00;99.90;;;;;;7660901;23;20168;-71
2021/07/17 15:57:08;;;;;;;7.95;6.30;;;27.50;99.90;;;;;;7660686;23;20528;-71
2021/07/17 16:00:13;;;;;;;7.47;6.60;;;27.80;99.90;;;;;;7660119;23;20179;-70
2021/07/17 16:03:16;;;;;;;8.15;6.38;;;27.90;99.90;;;;;;7660078;23;20644;-71
2021/07/17 16:06:19;;;;;;;8.25;6.13;;;28.00;99.90;;;;;;7686110;23;20191;-71
2021/07/17 16:09:22;;;;;;;8.85;6.55;;;28.10;99.90;;;;;;7687047;23;20564;-71
2021/07/17 16:12:24;;;;;;;7.00;6.30;;;28.20;99.90;;;;;;7685101;23;20475;-71
2021/07/17 16:15:27;;;;;;;10.43;6.70;;;28.20;99.90;;;;;;7685726;23;20190;-71
2021/07/17 16:18:29;;;;;;;6.93;6.22;;;27.90;99.90;;;;;;7686078;23;20607;-72
2021/07/17 16:21:31;;;;;;;10.30;6.57;;;27.40;99.90;;;;;;7658560;23;20176;-72
2021/07/17 16:24:34;;;;;;;8.63;6.38;;;27.20;99.90;;;;;;7658151;23;20271;-72
2021/07/17 16:27:38;;;;;;;6.90;6.22;;;27.40;99.90;;;;;;7677795;23;20165;-72
2021/07/17 16:30:41;;;;;;;7.35;6.60;;;27.60;99.90;;;;;;7650345;23;20160;-71
2021/07/17 16:33:45;;;;;;;7.53;6.63;;;27.50;99.90;;;;;;7651536;23;20176;-72
2021/07/17 16:36:52;;;;;;;9.40;7.93;;;27.20;99.90;;;;;;7649848;23;20207;-71
2021/07/17 16:39:54;;;;;;;7.82;7.07;;;26.70;99.90;;;;;;7677888;23;20163;-71
2021/07/17 16:42:56;;;;;;;9.50;7.03;;;26.20;99.90;;;;;;7676978;23;20187;-71
2021/07/17 16:45:58;;;;;;;8.05;7.35;;;25.70;99.90;;;;;;7677785;23;20547;-71
2021/07/17 16:49:01;;;;;;;9.98;8.23;;;25.40;99.90;;;;;;7677848;23;20171;-71
2021/07/17 16:52:04;;;;;;;9.20;7.57;;;25.00;99.90;;;;;;7650910;23;20303;-71
2021/07/17 16:55:08;;;;;;;10.85;7.78;;;24.80;99.90;;;;;;7677540;23;20472;-71
2021/07/17 16:58:10;;;;;;;11.20;8.82;;;24.50;99.90;;;;;;7677537;23;20164;-71
2021/07/17 17:01:12;;;;;;;10.17;8.30;;;24.30;99.90;;;;;;7676663;23;20164;-71
2021/07/17 17:04:15;;;;;;;9.87;8.87;;;24.10;99.90;;;;;;7677472;23;20234;-71
2021/07/17 17:07:17;;;;;;;9.53;8.20;;;23.80;99.90;;;;;;7650611;23;20614;-71
2021/07/17 17:10:21;;;;;;;9.63;8.47;;;23.60;99.90;;;;;;7651331;23;20164;-71
2021/07/17 17:13:24;;;;;;;12.43;8.93;;;23.40;99.90;;;;;;7651093;23;20179;-71
2021/07/17 17:16:27;;;;;;;11.03;8.33;;;23.30;99.90;;;;;;7651781;23;20243;-70
2021/07/17 17:19:29;;;;;;;10.73;9.67;;;23.20;99.90;;;;;;7678070;23;20498;-70
2021/07/17 17:22:32;;;;;;;9.93;8.97;;;23.10;99.90;;;;;;7677831;23;20172;-70
2021/07/17 17:25:35;;;;;;;10.23;8.80;;;23.00;99.90;;;;;;7627040;23;20727;-70
2021/07/17 17:28:37;;;;;;;14.87;9.30;;;22.90;99.90;;;;;;7677601;23;20171;-71
2021/07/17 17:31:40;;;;;;;9.50;8.60;;;22.80;99.90;;;;;;7677997;23;20171;-71
2021/07/17 17:34:43;;;;;;;12.30;8.37;;;22.70;99.90;;;;;;7651059;23;20176;-71
2021/07/17 17:37:47;;;;;;;10.97;9.87;;;22.70;99.90;;;;;;7677359;23;20195;-71
2021/07/17 17:40:49;;;;;;;11.03;9.97;;;22.60;99.90;;;;;;7677653;23;20172;-71
2021/07/17 17:43:51;;;;;;;12.37;9.57;;;22.50;99.90;;;;;;7677370;23;20194;-70
2021/07/17 17:46:54;;;;;;;11.03;9.93;;;22.30;99.90;;;;;;7650812;23;20226;-71
2021/07/17 17:49:56;;;;;;;11.70;10.50;;;22.10;99.90;;;;;;7677256;23;20164;-71
2021/07/17 17:53:00;;;;;;;11.37;10.27;;;22.00;99.90;;;;;;7626918;23;20599;-71
2021/07/17 17:56:03;;;;;;;11.87;10.67;;;21.80;99.90;;;;;;7651112;23;20172;-71
2021/07/17 17:59:06;;;;;;;14.60;12.20;;;21.70;99.90;;;;;;7651205;23;20184;-69
2021/07/17 18:02:08;;;;;;;15.03;11.47;;;21.50;99.90;;;;;;7651624;23;20164;-71